createdAt,value
2023-04-20T00:01:24.908Z,2.60
2023-04-20T00:03:52.200Z,3.70
2023-04-20T00:06:21.901Z,2.70
2023-04-20T00:08:49.006Z,2.60
2023-04-20T00:11:15.824Z,3.00
2023-04-20T00:13:42.774Z,2.30
2023-04-20T00:16:09.551Z,2.70
2023-04-20T00:18:36.289Z,2.80
2023-04-20T00:21:03.703Z,3.00
2023-04-20T00:23:30.586Z,2.90
2023-04-20T00:25:57.324Z,2.70
2023-04-20T00:28:24.129Z,3.10
2023-04-20T00:30:51.174Z,2.60
2023-04-20T00:33:18.035Z,2.70
2023-04-20T00:35:44.758Z,2.80
2023-04-20T00:38:11.630Z,2.90
2023-04-20T00:40:38.430Z,2.80
2023-04-20T00:43:12.033Z,2.30
2023-04-20T00:45:38.823Z,2.50
2023-04-20T00:48:05.967Z,2.70
2023-04-20T00:50:33.570Z,2.80
2023-04-20T00:53:00.998Z,1.80
2023-04-20T00:55:28.523Z,2.50
2023-04-20T00:57:55.614Z,2.20
2023-04-20T01:00:22.609Z,2.70
2023-04-20T01:02:49.497Z,2.90
2023-04-20T01:05:16.340Z,2.00
2023-04-20T01:07:43.113Z,2.00
2023-04-20T01:10:10.153Z,2.00
2023-04-20T01:12:39.809Z,2.20
2023-04-20T01:15:06.921Z,1.90
2023-04-20T01:17:33.755Z,2.10
2023-04-20T01:20:00.798Z,2.10
2023-04-20T01:22:27.845Z,2.60
2023-04-20T01:24:54.560Z,2.40
2023-04-20T01:27:21.350Z,2.30
2023-04-20T01:29:48.092Z,2.30
2023-04-20T01:32:14.866Z,2.20
2023-04-20T01:34:41.619Z,2.90
2023-04-20T01:37:08.578Z,2.60
2023-04-20T01:39:36.370Z,2.60
2023-04-20T01:42:03.224Z,2.50
2023-04-20T01:44:29.927Z,2.20
2023-04-20T01:46:56.736Z,2.80
2023-04-20T01:49:23.568Z,2.40
2023-04-20T01:51:51.742Z,3.40
2023-04-20T01:54:18.528Z,2.60
2023-04-20T01:56:45.366Z,2.50
2023-04-20T01:59:12.116Z,2.10
2023-04-20T02:01:39.015Z,2.30
2023-04-20T02:04:05.966Z,2.20
2023-04-20T02:06:33.278Z,2.40
2023-04-20T02:09:00.127Z,1.80
2023-04-20T02:11:26.981Z,2.50
2023-04-20T02:13:53.749Z,2.50
2023-04-20T02:16:21.893Z,2.30
2023-04-20T02:18:48.779Z,1.90
2023-04-20T02:21:15.519Z,2.00
2023-04-20T02:23:42.312Z,2.10
2023-04-20T02:26:09.131Z,2.60
2023-04-20T02:28:36.119Z,2.00
2023-04-20T02:31:04.751Z,2.60
2023-04-20T02:33:32.022Z,2.10
2023-04-20T02:35:58.855Z,2.60
2023-04-20T02:38:25.803Z,2.70
2023-04-20T02:40:52.714Z,2.20
2023-04-20T02:43:19.628Z,2.10
2023-04-20T02:45:46.939Z,2.30
2023-04-20T02:48:13.745Z,2.50
2023-04-20T02:50:41.868Z,2.40
2023-04-20T02:53:16.337Z,2.00
2023-04-20T02:55:44.624Z,1.90
2023-04-20T02:58:20.930Z,2.10
2023-04-20T03:01:13.675Z,1.80
2023-04-20T03:03:40.963Z,1.60
2023-04-20T03:06:10.300Z,2.20
2023-04-20T03:08:37.215Z,2.30
2023-04-20T03:11:19.527Z,2.00
2023-04-20T03:13:46.334Z,2.30
2023-04-20T03:16:13.092Z,2.30
2023-04-20T03:18:49.937Z,2.20
2023-04-20T03:21:16.709Z,2.40
2023-04-20T03:23:43.931Z,2.40
2023-04-20T03:26:11.108Z,2.50
2023-04-20T03:29:01.802Z,2.60
2023-04-20T03:31:29.282Z,2.30
2023-04-20T03:33:56.624Z,2.00
2023-04-20T03:36:23.393Z,2.80
2023-04-20T03:38:50.181Z,2.40
2023-04-20T03:41:17.111Z,2.60
2023-04-20T03:43:43.916Z,2.70
2023-04-20T03:46:10.832Z,2.30
2023-04-20T03:48:37.625Z,2.70
2023-04-20T03:51:04.526Z,2.70
2023-04-20T03:53:31.385Z,2.80
2023-04-20T03:55:58.419Z,2.90
2023-04-20T03:58:25.461Z,2.50
2023-04-20T04:01:01.763Z,2.90
2023-04-20T04:03:28.892Z,3.00
2023-04-20T04:05:56.225Z,3.30
2023-04-20T04:08:23.096Z,3.10
2023-04-20T04:10:50.050Z,3.10
2023-04-20T04:13:16.948Z,3.00
2023-04-20T04:15:43.785Z,4.00
2023-04-20T04:18:12.336Z,3.40
2023-04-20T04:20:39.544Z,3.40
2023-04-20T04:23:06.936Z,3.30
2023-04-20T04:25:41.333Z,2.80
2023-04-20T04:28:09.417Z,2.90
2023-04-20T04:30:38.177Z,3.40
2023-04-20T04:33:06.368Z,3.20
2023-04-20T04:35:34.728Z,2.90
2023-04-20T04:38:02.315Z,2.70
2023-04-20T04:40:29.354Z,3.30
2023-04-20T04:42:56.668Z,3.30
2023-04-20T04:45:25.421Z,3.30
2023-04-20T04:47:54.090Z,3.00
2023-04-20T04:50:21.932Z,3.60
2023-04-20T04:52:48.720Z,3.00
2023-04-20T04:55:16.529Z,3.50
2023-04-20T04:57:43.666Z,3.60
2023-04-20T05:00:12.064Z,2.90
2023-04-20T05:02:39.260Z,3.10
2023-04-20T05:05:09.388Z,3.50
2023-04-20T05:07:36.534Z,3.30
2023-04-20T05:10:03.304Z,2.80
2023-04-20T05:12:30.395Z,2.90
2023-04-20T05:14:57.107Z,2.90
2023-04-20T05:17:23.882Z,3.20
2023-04-20T05:19:50.792Z,3.20
2023-04-20T05:22:17.507Z,2.80
2023-04-20T05:24:44.448Z,2.70
2023-04-20T05:27:11.491Z,2.70
2023-04-20T05:29:38.610Z,3.10
2023-04-20T05:32:05.511Z,3.30
2023-04-20T05:34:32.423Z,2.70
2023-04-20T05:36:59.509Z,2.80
2023-04-20T05:39:26.511Z,2.70
2023-04-20T05:41:53.637Z,2.60
2023-04-20T05:44:20.660Z,1.90
2023-04-20T05:46:47.382Z,2.10
2023-04-20T05:49:14.252Z,2.20
2023-04-20T05:51:41.002Z,2.30
2023-04-20T05:54:07.770Z,2.20
2023-04-20T05:56:34.549Z,2.30
2023-04-20T05:59:01.462Z,2.20
2023-04-20T06:01:28.300Z,2.30
2023-04-20T06:03:55.378Z,2.30
2023-04-20T06:06:26.825Z,2.60
2023-04-20T06:08:53.661Z,2.40
2023-04-20T06:11:20.685Z,4.30
2023-04-20T06:13:47.503Z,2.70
2023-04-20T06:16:14.299Z,2.30
2023-04-20T06:18:41.094Z,2.40
2023-04-20T06:21:09.821Z,3.00
2023-04-20T06:23:37.730Z,2.80
2023-04-20T06:26:05.084Z,2.90
2023-04-20T06:28:31.807Z,2.70
2023-04-20T06:30:58.598Z,3.00
2023-04-20T06:33:25.414Z,3.10
2023-04-20T06:35:54.576Z,3.70
2023-04-20T06:38:21.308Z,3.40
2023-04-20T06:40:48.016Z,3.10
2023-04-20T06:43:14.720Z,2.90
2023-04-20T06:45:41.626Z,2.90
2023-04-20T06:48:17.327Z,10.50
2023-04-20T06:50:54.745Z,4.40
2023-04-20T06:53:21.545Z,3.80
2023-04-20T06:55:48.203Z,2.50
2023-04-20T06:58:14.966Z,3.40
2023-04-20T07:00:41.942Z,2.60
2023-04-20T07:03:08.822Z,2.90
2023-04-20T07:05:36.662Z,3.30
2023-04-20T07:08:03.873Z,3.00
2023-04-20T07:10:30.661Z,3.50
2023-04-20T07:12:57.450Z,6.50
2023-04-20T07:15:24.320Z,5.50
2023-04-20T07:17:51.087Z,3.40
2023-04-20T07:20:18.037Z,4.40
2023-04-20T07:22:44.906Z,6.50
2023-04-20T07:25:11.835Z,3.60
2023-04-20T07:27:39.538Z,3.70
2023-04-20T07:30:07.407Z,3.00
2023-04-20T07:32:36.309Z,3.60
2023-04-20T07:35:03.734Z,3.00
2023-04-20T07:37:31.774Z,2.70
2023-04-20T07:39:58.568Z,2.40
2023-04-20T07:42:25.476Z,3.00
2023-04-20T07:44:52.531Z,2.80
2023-04-20T07:47:19.472Z,2.90
2023-04-20T07:49:46.751Z,2.50
2023-04-20T07:52:17.018Z,2.90
2023-04-20T07:54:47.520Z,3.20
2023-04-20T07:57:14.290Z,3.80
2023-04-20T07:59:41.334Z,3.00
2023-04-20T08:02:08.445Z,3.60
2023-04-20T08:04:39.001Z,3.00
2023-04-20T08:07:06.028Z,4.00
2023-04-20T08:09:32.865Z,3.00
2023-04-20T08:12:00.432Z,21.80
2023-04-20T08:14:27.293Z,4.80
2023-04-20T08:16:54.093Z,11.10
2023-04-20T08:19:21.224Z,6.00
2023-04-20T08:21:48.027Z,3.90
2023-04-20T08:24:14.838Z,6.60
2023-04-20T08:26:43.440Z,4.90
2023-04-20T08:29:10.891Z,3.50
2023-04-20T08:31:37.727Z,4.20
2023-04-20T08:34:04.621Z,3.70
2023-04-20T08:36:32.199Z,4.30
2023-04-20T08:39:10.467Z,4.00
2023-04-20T08:41:37.205Z,3.90
2023-04-20T08:44:04.315Z,3.40
2023-04-20T08:46:31.279Z,3.70
2023-04-20T08:49:00.576Z,4.00
2023-04-20T08:51:27.372Z,3.50
2023-04-20T08:53:55.723Z,4.30
2023-04-20T08:56:39.282Z,4.80
2023-04-20T08:59:09.437Z,7.30
2023-04-20T09:01:36.920Z,6.20
2023-04-20T09:04:15.289Z,4.50
2023-04-20T09:06:52.417Z,3.90
2023-04-20T09:09:20.052Z,3.40
2023-04-20T09:11:46.930Z,4.50
2023-04-20T09:14:15.271Z,4.10
2023-04-20T09:16:50.710Z,4.10
2023-04-20T09:19:27.463Z,4.40
2023-04-20T09:21:55.905Z,3.90
2023-04-20T09:24:23.534Z,3.70
2023-04-20T09:26:50.548Z,4.40
2023-04-20T09:29:21.634Z,5.30
2023-04-20T09:31:48.851Z,4.40
2023-04-20T09:34:16.663Z,3.40
2023-04-20T09:36:45.432Z,3.70
2023-04-20T09:39:16.931Z,5.50
2023-04-20T09:41:43.891Z,3.70
2023-04-20T09:44:11.095Z,3.90
2023-04-20T09:46:41.575Z,4.60
2023-04-20T09:49:09.165Z,4.00
2023-04-20T09:51:37.502Z,4.60
2023-04-20T09:54:05.823Z,4.30
2023-04-20T09:56:33.259Z,4.00
2023-04-20T09:59:01.163Z,4.20
2023-04-20T10:01:30.436Z,4.30
2023-04-20T10:03:59.280Z,4.70
2023-04-20T10:06:27.871Z,5.20
2023-04-20T10:08:55.471Z,5.00
2023-04-20T10:11:27.975Z,4.80
2023-04-20T10:13:59.020Z,5.00
2023-04-20T10:16:26.522Z,4.90
2023-04-20T10:18:57.825Z,3.90
2023-04-20T10:21:24.795Z,5.30
2023-04-20T10:23:51.960Z,3.90
2023-04-20T10:26:19.065Z,4.40
2023-04-20T10:28:46.524Z,4.30
2023-04-20T10:31:15.231Z,5.40
2023-04-20T10:33:57.383Z,4.60
2023-04-20T10:36:24.988Z,3.90
2023-04-20T10:38:52.407Z,8.20
2023-04-20T10:41:19.686Z,4.80
2023-04-20T10:43:46.630Z,4.30
2023-04-20T10:46:17.177Z,5.50
2023-04-20T10:48:50.780Z,4.30
2023-04-20T10:51:21.293Z,4.20
2023-04-20T10:53:57.871Z,4.00
2023-04-20T10:56:24.967Z,3.60
2023-04-20T10:58:51.742Z,3.00
2023-04-20T11:01:18.550Z,3.90
2023-04-20T11:03:49.569Z,3.80
2023-04-20T11:06:16.415Z,3.70
2023-04-20T11:08:43.739Z,3.40
2023-04-20T11:11:19.647Z,4.40
2023-04-20T11:13:46.623Z,4.90
2023-04-20T11:16:14.266Z,4.90
2023-04-20T11:18:54.067Z,5.40
2023-04-20T11:21:21.892Z,3.80
2023-04-20T11:23:48.880Z,5.30
2023-04-20T11:26:15.790Z,4.30
2023-04-20T11:28:55.179Z,4.10
2023-04-20T11:31:23.471Z,4.30
2023-04-20T11:33:50.583Z,4.40
2023-04-20T11:36:21.617Z,3.30
2023-04-20T11:38:49.129Z,4.30
2023-04-20T11:41:17.105Z,3.60
2023-04-20T11:43:44.366Z,3.90
2023-04-20T11:46:15.350Z,3.70
2023-04-20T11:48:42.210Z,3.40
2023-04-20T11:51:09.003Z,3.20
2023-04-20T11:53:35.962Z,3.40
2023-04-20T11:56:02.708Z,3.50
2023-04-20T11:58:29.520Z,3.90
2023-04-20T12:00:56.316Z,3.70
2023-04-20T12:03:23.233Z,3.30
2023-04-20T12:05:50.162Z,3.00
2023-04-20T12:08:17.492Z,3.00
2023-04-20T12:10:44.310Z,3.40
2023-04-20T12:13:11.117Z,2.80
2023-04-20T12:15:37.924Z,3.40
2023-04-20T12:18:04.623Z,2.90
2023-04-20T12:20:31.408Z,3.00
2023-04-20T12:22:59.170Z,2.40
2023-04-20T12:25:26.359Z,3.00
2023-04-20T12:27:53.091Z,3.40
2023-04-20T12:30:19.942Z,2.80
2023-04-20T12:32:46.715Z,3.50
2023-04-20T12:35:13.484Z,3.10
2023-04-20T12:37:40.348Z,2.70
2023-04-20T12:40:07.493Z,3.00
2023-04-20T12:42:34.337Z,2.50
2023-04-20T12:45:01.535Z,2.70
2023-04-20T12:47:28.348Z,2.50
2023-04-20T12:49:55.329Z,2.10
2023-04-20T12:52:22.128Z,2.60
2023-04-20T12:54:48.861Z,2.50
2023-04-20T12:57:15.626Z,2.50
2023-04-20T12:59:43.036Z,2.30
2023-04-20T13:02:11.091Z,2.60
2023-04-20T13:04:37.846Z,2.30
2023-04-20T13:07:04.641Z,2.60
2023-04-20T13:09:31.349Z,3.10
2023-04-20T13:11:58.180Z,2.90
2023-04-20T13:14:25.570Z,3.40
2023-04-20T13:16:54.996Z,2.40
2023-04-20T13:19:22.166Z,2.60
2023-04-20T13:21:48.951Z,2.30
2023-04-20T13:24:15.893Z,2.50
2023-04-20T13:26:42.828Z,2.60
2023-04-20T13:29:09.594Z,2.50
2023-04-20T13:31:37.600Z,2.30
2023-04-20T13:34:04.473Z,3.00
2023-04-20T13:36:31.914Z,2.70
2023-04-20T13:38:59.072Z,2.30
2023-04-20T13:41:25.838Z,3.10
2023-04-20T13:43:52.582Z,2.50
2023-04-20T13:46:20.225Z,2.60
2023-04-20T13:48:47.022Z,2.30
2023-04-20T13:51:13.920Z,2.60
2023-04-20T13:53:40.706Z,2.30
2023-04-20T13:56:07.547Z,2.20
2023-04-20T13:58:34.404Z,2.80
2023-04-20T14:01:01.195Z,2.50
2023-04-20T14:03:28.118Z,2.60
2023-04-20T14:05:54.981Z,2.70
2023-04-20T14:08:23.383Z,2.80
2023-04-20T14:10:50.195Z,3.10
2023-04-20T14:13:16.952Z,3.20
2023-04-20T14:15:43.688Z,2.60
2023-04-20T14:18:10.609Z,2.30
2023-04-20T14:20:37.410Z,2.50
2023-04-20T14:23:04.162Z,2.70
2023-04-20T14:25:31.506Z,2.40
2023-04-20T14:27:58.306Z,2.50
2023-04-20T14:30:25.114Z,2.40
2023-04-20T14:32:58.922Z,2.50
2023-04-20T14:35:26.488Z,2.30
2023-04-20T14:37:53.399Z,2.30
2023-04-20T14:40:20.741Z,2.20
2023-04-20T14:42:47.543Z,2.70
2023-04-20T14:45:14.250Z,2.90
2023-04-20T14:47:41.378Z,2.80
2023-04-20T14:50:08.975Z,3.80
2023-04-20T14:52:35.756Z,3.10
2023-04-20T14:55:02.917Z,2.80
2023-04-20T14:57:29.797Z,2.90
2023-04-20T14:59:56.580Z,3.00
2023-04-20T15:02:23.476Z,2.80
2023-04-20T15:04:50.626Z,2.50
2023-04-20T15:07:18.812Z,15.50
2023-04-20T15:09:46.111Z,6.10
2023-04-20T15:12:12.816Z,6.40
2023-04-20T15:14:39.576Z,4.00
2023-04-20T15:17:06.346Z,3.40
2023-04-20T15:19:33.085Z,2.30
2023-04-20T15:22:00.770Z,2.20
2023-04-20T15:24:27.564Z,2.40
2023-04-20T15:26:54.360Z,2.70
2023-04-20T15:29:21.465Z,2.60
2023-04-20T15:31:48.330Z,2.50
2023-04-20T15:34:17.269Z,2.30
2023-04-20T15:36:44.552Z,2.60
2023-04-20T15:39:11.626Z,2.40
2023-04-20T15:41:38.571Z,2.80
2023-04-20T15:44:05.775Z,2.70
2023-04-20T15:46:32.684Z,2.70
2023-04-20T15:48:59.705Z,2.60
2023-04-20T15:51:28.128Z,2.50
2023-04-20T15:53:55.059Z,2.50
2023-04-20T15:56:24.775Z,2.90
2023-04-20T15:58:51.924Z,3.30
2023-04-20T16:01:19.843Z,2.30
2023-04-20T16:03:47.591Z,2.00
2023-04-20T16:06:14.506Z,2.20
2023-04-20T16:08:41.583Z,1.90
2023-04-20T16:11:08.316Z,2.20
2023-04-20T16:13:36.508Z,3.20
2023-04-20T16:16:03.532Z,2.10
2023-04-20T16:18:32.277Z,2.30
2023-04-20T16:20:59.343Z,2.30
2023-04-20T16:23:26.282Z,2.70
2023-04-20T16:25:53.056Z,2.30
2023-04-20T16:28:19.876Z,1.90
2023-04-20T16:30:46.618Z,3.10
2023-04-20T16:33:13.871Z,2.40
2023-04-20T16:35:40.974Z,2.20
2023-04-20T16:38:10.146Z,2.10
2023-04-20T16:40:37.357Z,2.20
2023-04-20T16:43:04.095Z,2.30
2023-04-20T16:45:32.290Z,1.80
2023-04-20T16:47:59.127Z,2.20
2023-04-20T16:50:25.975Z,2.30
2023-04-20T16:52:52.783Z,1.70
2023-04-20T16:55:19.631Z,2.30
2023-04-20T16:57:46.465Z,1.80
2023-04-20T17:00:14.368Z,2.10
2023-04-20T17:02:41.230Z,2.40
2023-04-20T17:05:08.272Z,2.20
2023-04-20T17:07:36.534Z,2.30
2023-04-20T17:10:03.685Z,2.10
2023-04-20T17:12:30.475Z,3.70
2023-04-20T17:14:57.268Z,5.50
2023-04-20T17:17:25.275Z,4.80
2023-04-20T17:19:52.190Z,4.80
2023-04-20T17:22:19.734Z,3.30
2023-04-20T17:24:47.251Z,3.10
2023-04-20T17:27:16.530Z,2.40
2023-04-20T17:29:45.657Z,2.80
2023-04-20T17:32:13.566Z,3.00
2023-04-20T17:34:42.663Z,3.30
2023-04-20T17:37:11.953Z,3.10
2023-04-20T17:39:38.666Z,3.60
2023-04-20T17:42:05.498Z,3.20
2023-04-20T17:44:32.408Z,3.60
2023-04-20T17:47:01.138Z,4.10
2023-04-20T17:49:31.130Z,4.10
2023-04-20T17:51:58.280Z,3.30
2023-04-20T17:54:27.374Z,2.90
2023-04-20T17:56:55.054Z,3.70
2023-04-20T17:59:21.924Z,3.20
2023-04-20T18:01:49.938Z,2.50
2023-04-20T18:04:17.073Z,2.10
2023-04-20T18:06:44.009Z,2.20
2023-04-20T18:09:13.416Z,2.40
2023-04-20T18:11:40.919Z,2.20
2023-04-20T18:14:07.925Z,2.10
2023-04-20T18:16:34.862Z,2.40
2023-04-20T18:19:02.235Z,2.90
2023-04-20T18:21:30.739Z,2.60
2023-04-20T18:23:57.624Z,2.60
2023-04-20T18:26:25.598Z,2.90
2023-04-20T18:28:52.913Z,2.60
2023-04-20T18:31:19.921Z,2.90
2023-04-20T18:33:47.492Z,3.50
2023-04-20T18:36:16.312Z,4.30
2023-04-20T18:38:43.409Z,4.20
2023-04-20T18:41:11.299Z,4.90
2023-04-20T18:43:39.365Z,4.70
2023-04-20T18:46:07.668Z,2.90
2023-04-20T18:48:35.136Z,3.70
2023-04-20T18:51:04.025Z,3.70
2023-04-20T18:53:32.113Z,3.70
2023-04-20T18:56:02.248Z,3.60
2023-04-20T18:58:29.670Z,4.10
2023-04-20T19:00:56.980Z,4.00
2023-04-20T19:03:25.204Z,4.60
2023-04-20T19:05:53.022Z,4.60
2023-04-20T19:08:20.660Z,4.70
2023-04-20T19:10:48.254Z,4.80
2023-04-20T19:13:19.201Z,6.40
2023-04-20T19:15:46.703Z,5.00
2023-04-20T19:18:15.506Z,5.10
2023-04-20T19:20:43.072Z,6.40
2023-04-20T19:23:11.546Z,5.60
2023-04-20T19:25:39.360Z,5.90
2023-04-20T19:28:08.384Z,5.50
2023-04-20T19:30:36.286Z,6.20
2023-04-20T19:33:05.624Z,5.60
2023-04-20T19:35:33.148Z,5.20
2023-04-20T19:38:01.177Z,5.40
2023-04-20T19:40:28.513Z,5.90
2023-04-20T19:42:55.675Z,6.50
2023-04-20T19:45:27.998Z,6.60
2023-04-20T19:47:55.935Z,7.70
2023-04-20T19:50:23.523Z,6.80
2023-04-20T19:52:51.107Z,6.50
2023-04-20T19:55:18.025Z,6.00
2023-04-20T19:57:45.264Z,6.90
2023-04-20T20:00:13.810Z,6.20
2023-04-20T20:02:42.133Z,7.20
2023-04-20T20:05:09.423Z,6.50
2023-04-20T20:07:36.774Z,7.00
2023-04-20T20:10:04.396Z,6.40
2023-04-20T20:12:31.172Z,7.20
2023-04-20T20:14:57.912Z,7.10
2023-04-20T20:17:24.665Z,7.90
2023-04-20T20:19:53.786Z,8.20
2023-04-20T20:22:21.855Z,9.60
2023-04-20T20:24:51.164Z,12.90
2023-04-20T20:27:19.100Z,11.70
2023-04-20T20:29:46.577Z,6.50
2023-04-20T20:32:13.408Z,6.80
2023-04-20T20:34:40.468Z,6.40
2023-04-20T20:37:07.455Z,7.50
2023-04-20T20:39:34.220Z,6.80
2023-04-20T20:42:02.092Z,6.30
2023-04-20T20:44:29.790Z,7.80
2023-04-20T20:46:56.673Z,7.40
2023-04-20T20:49:23.594Z,7.10
2023-04-20T20:51:50.372Z,6.40
2023-04-20T20:54:17.138Z,6.70
2023-04-20T20:56:43.934Z,7.60
2023-04-20T20:59:10.772Z,7.00
2023-04-20T21:01:37.535Z,7.00
2023-04-20T21:04:04.953Z,6.70
2023-04-20T21:06:32.816Z,7.20
2023-04-20T21:08:59.699Z,6.00
2023-04-20T21:11:26.436Z,5.50
2023-04-20T21:13:54.321Z,5.40
2023-04-20T21:16:21.172Z,5.70
2023-04-20T21:18:47.962Z,5.10
2023-04-20T21:21:15.669Z,5.50
2023-04-20T21:23:42.452Z,5.60
2023-04-20T21:26:09.198Z,5.20
2023-04-20T21:28:35.950Z,5.10
2023-04-20T21:31:02.685Z,5.10
2023-04-20T21:33:29.495Z,5.30
2023-04-20T21:35:58.853Z,6.30
2023-04-20T21:38:25.817Z,8.00
2023-04-20T21:40:52.587Z,9.80
2023-04-20T21:43:19.390Z,10.80
2023-04-20T21:45:46.168Z,6.60
2023-04-20T21:48:13.031Z,9.00
2023-04-20T21:50:39.813Z,6.10
2023-04-20T21:53:06.630Z,7.20
2023-04-20T21:55:33.473Z,7.10
2023-04-20T21:58:00.993Z,11.30
2023-04-20T22:00:28.079Z,17.80
2023-04-20T22:02:54.970Z,19.20
2023-04-20T22:05:21.908Z,18.30
2023-04-20T22:07:48.713Z,14.60
2023-04-20T22:10:15.569Z,14.40
2023-04-20T22:12:42.570Z,11.30
2023-04-20T22:15:10.793Z,10.10
2023-04-20T22:17:40.714Z,9.30
2023-04-20T22:20:09.273Z,16.00
2023-04-20T22:22:36.405Z,15.50
2023-04-20T22:25:04.643Z,13.50
2023-04-20T22:27:31.989Z,11.30
2023-04-20T22:29:58.932Z,10.50
2023-04-20T22:32:25.783Z,10.30
2023-04-20T22:34:52.555Z,9.10
2023-04-20T22:37:19.396Z,8.90
2023-04-20T22:39:46.199Z,9.30
2023-04-20T22:42:12.954Z,8.80
2023-04-20T22:44:39.756Z,8.40
2023-04-20T22:47:06.599Z,8.70
2023-04-20T22:49:33.449Z,7.30
2023-04-20T22:52:00.406Z,6.60
2023-04-20T22:54:27.219Z,5.80
2023-04-20T22:56:53.987Z,6.60
2023-04-20T22:59:20.929Z,6.70
2023-04-20T23:01:47.893Z,6.40
2023-04-20T23:04:14.764Z,7.20
2023-04-20T23:06:43.986Z,7.10
2023-04-20T23:09:12.560Z,7.10
2023-04-20T23:11:39.636Z,6.80
2023-04-20T23:14:07.124Z,8.40
2023-04-20T23:16:34.188Z,8.10
2023-04-20T23:19:01.214Z,7.80
2023-04-20T23:21:31.257Z,9.80
2023-04-20T23:23:58.065Z,8.60
2023-04-20T23:26:25.175Z,7.70
2023-04-20T23:28:52.822Z,7.90
2023-04-20T23:31:20.194Z,7.40
2023-04-20T23:33:47.405Z,7.60
2023-04-20T23:36:14.195Z,8.40
2023-04-20T23:38:41.073Z,7.40
2023-04-20T23:41:11.489Z,7.80
2023-04-20T23:43:38.707Z,7.80
2023-04-20T23:46:08.671Z,8.20
2023-04-20T23:48:35.525Z,6.70
2023-04-20T23:51:02.547Z,7.20
2023-04-20T23:53:29.365Z,6.70
2023-04-20T23:55:56.136Z,6.10
2023-04-20T23:58:25.805Z,7.30
